Time;durP1;ratioP1;P1;durP2;ratioP2;P2;SDS_P1;SDS_P2;PMS_P1;PMS_P2;Temp;Humidity;BMP_temperature;BMP_pressure;BME280_temperature;BME280_humidity;BME280_pressure;Samples;Min_cycle;Max_cycle;Signal;HPM_P1;HPM_P2
2023/06/19 00:00:12;;;;;;;15.40;10.93;;;;;;;;;;4990562;28;20041;-74
2023/06/19 00:02:40;;;;;;;12.98;10.30;;;;;;;;;;4995407;28;20026;-75
2023/06/19 00:05:07;;;;;;;13.13;10.82;;;;;;;;;;4989816;28;20057;-75
2023/06/19 00:07:34;;;;;;;14.95;10.85;;;;;;;;;;4990443;28;20037;-74
2023/06/19 00:10:00;;;;;;;11.73;9.85;;;;;;;;;;4992218;28;20109;-75
2023/06/19 00:12:26;;;;;;;14.10;11.55;;;;;;;;;;5003486;28;20152;-75
2023/06/19 00:14:52;;;;;;;12.70;10.95;;;;;;;;;;4997625;28;20030;-73
2023/06/19 00:17:17;;;;;;;17.27;11.02;;;;;;;;;;4995520;28;20038;-73
2023/06/19 00:19:44;;;;;;;12.27;10.93;;;;;;;;;;4992461;28;20042;-75
2023/06/19 00:22:10;;;;;;;13.65;11.05;;;;;;;;;;4996463;28;20213;-74
2023/06/19 00:24:35;;;;;;;13.35;11.13;;;;;;;;;;4992622;28;20454;-74
2023/06/19 00:27:02;;;;;;;12.30;10.43;;;;;;;;;;4996644;28;20065;-73
2023/06/19 00:29:32;;;;;;;13.75;10.70;;;;;;;;;;4989042;28;20249;-73
2023/06/19 00:31:59;;;;;;;14.15;9.88;;;;;;;;;;4989775;28;20488;-73
2023/06/19 00:34:24;;;;;;;15.40;10.95;;;;;;;;;;4996206;28;20029;-74
2023/06/19 00:36:55;;;;;;;11.13;9.70;;;;;;;;;;4988488;28;20039;-74
2023/06/19 00:39:26;;;;;;;12.68;10.13;;;;;;;;;;4991813;28;20034;-74
2023/06/19 00:41:52;;;;;;;15.18;10.15;;;;;;;;;;4996134;28;20038;-74
2023/06/19 00:44:18;;;;;;;14.93;10.00;;;;;;;;;;4993031;28;20034;-73
2023/06/19 00:46:44;;;;;;;14.60;9.45;;;;;;;;;;4985932;28;20038;-73
2023/06/19 00:49:11;;;;;;;11.60;8.73;;;;;;;;;;4988990;28;20022;-74
2023/06/19 00:51:37;;;;;;;12.75;9.25;;;;;;;;;;4987980;28;22200;-72
2023/06/19 00:54:03;;;;;;;15.32;9.43;;;;;;;;;;4995965;28;20033;-74
2023/06/19 00:56:29;;;;;;;12.32;8.70;;;;;;;;;;4993879;28;20539;-74
2023/06/19 00:58:57;;;;;;;12.55;9.48;;;;;;;;;;4990319;28;20026;-74
2023/06/19 01:01:23;;;;;;;15.10;9.65;;;;;;;;;;4988299;28;20041;-73
2023/06/19 01:03:49;;;;;;;15.80;9.93;;;;;;;;;;4992571;28;20026;-74
2023/06/19 01:06:24;;;;;;;11.80;10.38;;;;;;;;;;4993691;28;20548;-73
2023/06/19 01:09:05;;;;;;;15.32;10.55;;;;;;;;;;4990518;28;20033;-74
2023/06/19 01:11:37;;;;;;;11.88;9.57;;;;;;;;;;4985517;28;20034;-74
2023/06/19 01:14:09;;;;;;;13.18;10.02;;;;;;;;;;4972117;28;20070;-73
2023/06/19 01:16:36;;;;;;;16.17;10.18;;;;;;;;;;4993252;28;20522;-73
2023/06/19 01:19:03;;;;;;;15.52;9.75;;;;;;;;;;4989340;28;20129;-73
2023/06/19 01:21:29;;;;;;;13.35;9.48;;;;;;;;;;5004158;28;20534;-74
2023/06/19 01:23:55;;;;;;;13.50;9.18;;;;;;;;;;4985655;28;20058;-74
2023/06/19 01:26:27;;;;;;;15.48;10.18;;;;;;;;;;4984663;28;20093;-74
2023/06/19 01:28:54;;;;;;;11.98;9.20;;;;;;;;;;4989461;28;20738;-74
2023/06/19 01:31:37;;;;;;;11.95;9.13;;;;;;;;;;4991110;28;20022;-74
2023/06/19 01:34:07;;;;;;;12.27;9.68;;;;;;;;;;4996355;28;20046;-73
2023/06/19 01:36:33;;;;;;;11.25;9.18;;;;;;;;;;4998927;28;20061;-73
2023/06/19 01:39:00;;;;;;;15.60;8.80;;;;;;;;;;4993415;28;20137;-74
2023/06/19 01:41:26;;;;;;;10.65;8.68;;;;;;;;;;4993101;28;20038;-73
2023/06/19 01:43:53;;;;;;;14.50;9.07;;;;;;;;;;4990653;28;20581;-73
2023/06/19 01:46:19;;;;;;;13.55;8.68;;;;;;;;;;4987818;28;20026;-74
2023/06/19 01:48:44;;;;;;;15.27;8.50;;;;;;;;;;4994838;28;20036;-74
2023/06/19 01:51:11;;;;;;;18.65;9.70;;;;;;;;;;4994448;28;20042;-74
2023/06/19 01:53:38;;;;;;;14.55;9.88;;;;;;;;;;4988552;28;20049;-74
2023/06/19 01:56:04;;;;;;;13.93;8.85;;;;;;;;;;4990494;28;20031;-73
2023/06/19 01:58:30;;;;;;;15.77;9.40;;;;;;;;;;4987294;28;20130;-73
2023/06/19 02:00:55;;;;;;;12.65;9.32;;;;;;;;;;4995742;28;20502;-74
2023/06/19 02:03:21;;;;;;;16.05;9.70;;;;;;;;;;4986417;28;20045;-74
2023/06/19 02:05:47;;;;;;;12.82;10.80;;;;;;;;;;4993638;28;20053;-73
2023/06/19 02:08:13;;;;;;;14.80;9.73;;;;;;;;;;4993826;28;20029;-74
2023/06/19 02:10:38;;;;;;;27.63;12.50;;;;;;;;;;4992399;28;20042;-73
2023/06/19 02:13:04;;;;;;;20.83;11.55;;;;;;;;;;4993504;28;20038;-74
2023/06/19 02:15:30;;;;;;;22.95;11.90;;;;;;;;;;4991790;28;20054;-74
2023/06/19 02:17:56;;;;;;;12.68;9.95;;;;;;;;;;4991728;28;20528;-73
2023/06/19 02:20:27;;;;;;;16.25;10.02;;;;;;;;;;4987011;28;20034;-72
2023/06/19 02:22:55;;;;;;;15.27;11.38;;;;;;;;;;4996833;28;20049;-74
2023/06/19 02:25:21;;;;;;;15.88;11.32;;;;;;;;;;4989565;28;20030;-73
2023/06/19 02:27:47;;;;;;;16.13;11.63;;;;;;;;;;4989034;28;20037;-74
2023/06/19 02:30:13;;;;;;;21.80;13.00;;;;;;;;;;4991954;28;20153;-73
2023/06/19 02:32:39;;;;;;;14.93;11.32;;;;;;;;;;4991729;28;20076;-73
2023/06/19 02:35:08;;;;;;;13.80;10.77;;;;;;;;;;4991698;28;20058;-73
2023/06/19 02:37:35;;;;;;;17.35;10.57;;;;;;;;;;4993446;28;20069;-73
2023/06/19 02:40:03;;;;;;;18.30;12.90;;;;;;;;;;4995707;28;20065;-74
2023/06/19 02:42:32;;;;;;;15.63;12.13;;;;;;;;;;4989888;28;20021;-74
2023/06/19 02:45:02;;;;;;;17.05;11.85;;;;;;;;;;4991713;28;20027;-73
2023/06/19 02:47:32;;;;;;;14.88;12.23;;;;;;;;;;4990068;28;20045;-73
2023/06/19 02:49:59;;;;;;;18.35;11.85;;;;;;;;;;4990062;28;20472;-74
2023/06/19 02:52:24;;;;;;;20.75;11.98;;;;;;;;;;4990723;28;20065;-74
2023/06/19 02:54:50;;;;;;;18.30;12.68;;;;;;;;;;4991325;28;20073;-73
2023/06/19 02:57:16;;;;;;;15.02;12.07;;;;;;;;;;4992775;28;20026;-73
2023/06/19 02:59:42;;;;;;;15.80;11.50;;;;;;;;;;4992795;28;20478;-73
2023/06/19 03:02:08;;;;;;;16.45;12.00;;;;;;;;;;5000877;28;20114;-74
2023/06/19 03:04:33;;;;;;;13.80;11.48;;;;;;;;;;4992841;28;20121;-73
2023/06/19 03:06:59;;;;;;;17.15;11.70;;;;;;;;;;4976380;28;20047;-74
2023/06/19 03:09:25;;;;;;;20.55;13.32;;;;;;;;;;4999644;28;20040;-74
2023/06/19 03:11:51;;;;;;;19.95;12.70;;;;;;;;;;4993692;28;20513;-74
2023/06/19 03:14:17;;;;;;;21.67;13.27;;;;;;;;;;4992759;28;20042;-75
2023/06/19 03:16:42;;;;;;;22.67;13.48;;;;;;;;;;4991611;28;20549;-74
2023/06/19 03:19:08;;;;;;;17.13;12.65;;;;;;;;;;4995514;28;20042;-73
2023/06/19 03:21:35;;;;;;;26.08;13.45;;;;;;;;;;4990900;28;20065;-74
2023/06/19 03:24:01;;;;;;;28.65;13.55;;;;;;;;;;4996172;28;20051;-73
2023/06/19 03:26:27;;;;;;;22.55;12.48;;;;;;;;;;4996471;28;20029;-73
2023/06/19 03:28:58;;;;;;;20.75;11.93;;;;;;;;;;4991028;28;20109;-73
2023/06/19 03:31:26;;;;;;;19.85;11.60;;;;;;;;;;4983137;28;20049;-74
2023/06/19 03:33:53;;;;;;;20.42;12.25;;;;;;;;;;5001711;28;20089;-75
2023/06/19 03:36:21;;;;;;;17.98;11.38;;;;;;;;;;4991123;28;20054;-74
2023/06/19 03:38:50;;;;;;;16.80;10.93;;;;;;;;;;5006614;28;20022;-74
2023/06/19 03:41:19;;;;;;;13.32;9.77;;;;;;;;;;5008264;28;20045;-72
2023/06/19 03:43:47;;;;;;;20.90;10.38;;;;;;;;;;4986303;28;20034;-73
2023/06/19 03:46:14;;;;;;;15.98;10.23;;;;;;;;;;4995756;28;20451;-75
2023/06/19 03:48:40;;;;;;;15.77;9.52;;;;;;;;;;5004279;28;20093;-75
2023/06/19 03:51:06;;;;;;;13.43;9.82;;;;;;;;;;4999236;28;20062;-76
2023/06/19 03:53:32;;;;;;;23.65;10.85;;;;;;;;;;4982776;28;20062;-75
2023/06/19 03:55:57;;;;;;;15.73;9.55;;;;;;;;;;4999615;28;20045;-74
2023/06/19 03:58:23;;;;;;;17.42;9.02;;;;;;;;;;4997204;28;20443;-74
2023/06/19 04:00:49;;;;;;;15.45;9.10;;;;;;;;;;4976654;28;20062;-75
2023/06/19 04:03:15;;;;;;;10.13;7.95;;;;;;;;;;4997526;28;20026;-75
2023/06/19 04:05:42;;;;;;;16.55;9.02;;;;;;;;;;4996597;28;20045;-75
2023/06/19 04:08:07;;;;;;;18.08;9.25;;;;;;;;;;4986659;28;20031;-74
2023/06/19 04:10:33;;;;;;;14.82;8.30;;;;;;;;;;4997781;28;20076;-73
2023/06/19 04:13:00;;;;;;;18.65;8.90;;;;;;;;;;4993514;28;20026;-74
2023/06/19 04:15:31;;;;;;;19.02;8.75;;;;;;;;;;4993823;28;20495;-74
2023/06/19 04:18:00;;;;;;;19.67;9.90;;;;;;;;;;4994818;28;20022;-73
2023/06/19 04:20:27;;;;;;;15.60;9.35;;;;;;;;;;4990913;28;20511;-75
2023/06/19 04:22:53;;;;;;;17.02;9.68;;;;;;;;;;4994369;28;20452;-75
2023/06/19 04:25:19;;;;;;;13.23;8.50;;;;;;;;;;4993061;28;20037;-74
2023/06/19 04:27:45;;;;;;;13.35;8.30;;;;;;;;;;4979951;28;20380;-73
2023/06/19 04:30:11;;;;;;;15.90;8.55;;;;;;;;;;4992504;28;20033;-73
2023/06/19 04:32:40;;;;;;;13.40;7.75;;;;;;;;;;4994302;28;20517;-73
2023/06/19 04:35:09;;;;;;;14.30;8.45;;;;;;;;;;4990186;28;20035;-73
2023/06/19 04:37:35;;;;;;;12.02;7.95;;;;;;;;;;4987354;28;20092;-73
2023/06/19 04:40:03;;;;;;;17.17;7.97;;;;;;;;;;4993225;28;20034;-74
2023/06/19 04:42:29;;;;;;;14.10;8.75;;;;;;;;;;4990711;28;20150;-73
2023/06/19 04:44:56;;;;;;;16.90;9.55;;;;;;;;;;4986877;28;20050;-74
2023/06/19 04:47:23;;;;;;;14.70;9.32;;;;;;;;;;4987236;28;20034;-74
2023/06/19 04:49:49;;;;;;;21.60;10.43;;;;;;;;;;4992445;28;20026;-73
2023/06/19 04:52:14;;;;;;;17.90;9.35;;;;;;;;;;4992737;28;20124;-73
2023/06/19 04:54:40;;;;;;;14.45;8.60;;;;;;;;;;4987639;28;20049;-73
2023/06/19 04:57:06;;;;;;;13.20;8.23;;;;;;;;;;4989042;28;20037;-73
2023/06/19 04:59:33;;;;;;;15.80;9.23;;;;;;;;;;4988867;28;20512;-73
2023/06/19 05:01:59;;;;;;;18.88;9.07;;;;;;;;;;4993606;28;20157;-74
2023/06/19 05:04:25;;;;;;;18.55;8.88;;;;;;;;;;4994201;28;20061;-74
2023/06/19 05:06:51;;;;;;;27.00;10.07;;;;;;;;;;4988953;28;20150;-75
2023/06/19 05:09:17;;;;;;;21.23;9.15;;;;;;;;;;4992139;28;20044;-73
2023/06/19 05:11:43;;;;;;;23.20;9.02;;;;;;;;;;4993788;28;20042;-74
2023/06/19 05:14:11;;;;;;;8.40;7.45;;;;;;;;;;4996391;28;20109;-73
2023/06/19 05:16:37;;;;;;;17.73;8.25;;;;;;;;;;4990387;28;20065;-73
2023/06/19 05:19:02;;;;;;;19.40;9.77;;;;;;;;;;4988902;28;20116;-74
2023/06/19 05:21:28;;;;;;;14.60;8.93;;;;;;;;;;4986838;28;20584;-73
2023/06/19 05:23:54;;;;;;;15.70;8.48;;;;;;;;;;4995557;28;20037;-73
2023/06/19 05:26:21;;;;;;;12.55;7.50;;;;;;;;;;4991246;28;20052;-72
2023/06/19 05:28:47;;;;;;;13.48;9.13;;;;;;;;;;4993263;28;20030;-72
2023/06/19 05:31:13;;;;;;;16.00;8.52;;;;;;;;;;4989960;28;20036;-73
2023/06/19 05:33:38;;;;;;;20.17;9.13;;;;;;;;;;4992233;28;20081;-73
2023/06/19 05:36:04;;;;;;;15.45;9.02;;;;;;;;;;4988752;28;20395;-73
2023/06/19 05:38:30;;;;;;;20.85;11.10;;;;;;;;;;4989147;28;20037;-73
2023/06/19 05:40:57;;;;;;;15.18;10.32;;;;;;;;;;4992267;28;20034;-73
2023/06/19 05:43:24;;;;;;;16.30;9.63;;;;;;;;;;4985123;28;20046;-73
2023/06/19 05:45:50;;;;;;;19.55;9.63;;;;;;;;;;4988844;28;20034;-72
2023/06/19 05:48:16;;;;;;;17.02;8.55;;;;;;;;;;4989288;28;20098;-73
2023/06/19 05:50:42;;;;;;;13.15;7.70;;;;;;;;;;4992186;28;20030;-72
2023/06/19 05:53:07;;;;;;;11.55;7.30;;;;;;;;;;4984358;28;20485;-73
2023/06/19 05:55:33;;;;;;;14.10;7.25;;;;;;;;;;4994407;28;20130;-73
2023/06/19 05:57:59;;;;;;;18.42;7.95;;;;;;;;;;4986896;28;20756;-74
2023/06/19 06:00:25;;;;;;;11.65;8.00;;;;;;;;;;4992825;28;20480;-73
2023/06/19 06:02:53;;;;;;;10.23;7.30;;;;;;;;;;4990967;28;20030;-74
2023/06/19 06:05:21;;;;;;;12.48;7.22;;;;;;;;;;4990077;28;20049;-74
2023/06/19 06:07:46;;;;;;;12.48;6.93;;;;;;;;;;4994791;28;20034;-73
2023/06/19 06:10:13;;;;;;;10.88;6.93;;;;;;;;;;4993408;28;20034;-77
2023/06/19 06:12:40;;;;;;;13.02;7.05;;;;;;;;;;4988596;28;20448;-76
2023/06/19 06:15:07;;;;;;;9.50;6.55;;;;;;;;;;4976111;28;20412;-76
2023/06/19 06:17:34;;;;;;;9.32;5.47;;;;;;;;;;4985066;28;20046;-77
2023/06/19 06:20:00;;;;;;;10.57;6.00;;;;;;;;;;4996305;28;20041;-77
2023/06/19 06:22:25;;;;;;;9.10;7.03;;;;;;;;;;4992154;28;20484;-76
2023/06/19 06:24:53;;;;;;;8.32;5.30;;;;;;;;;;4991462;28;20030;-77
2023/06/19 06:27:18;;;;;;;12.38;6.40;;;;;;;;;;4987844;28;20030;-77
2023/06/19 06:29:44;;;;;;;8.75;5.88;;;;;;;;;;4999527;28;20032;-75
2023/06/19 06:32:11;;;;;;;8.13;5.50;;;;;;;;;;4996622;28;20069;-76
2023/06/19 06:34:37;;;;;;;8.52;5.72;;;;;;;;;;4997224;28;20053;-77
2023/06/19 06:37:03;;;;;;;8.25;6.03;;;;;;;;;;4993913;28;20061;-76
2023/06/19 06:39:30;;;;;;;8.07;5.80;;;;;;;;;;4988713;28;20089;-78
2023/06/19 06:41:57;;;;;;;11.65;5.53;;;;;;;;;;4994372;28;20030;-76
2023/06/19 06:44:23;;;;;;;8.43;4.90;;;;;;;;;;4987574;28;20041;-74
2023/06/19 06:46:52;;;;;;;7.88;5.45;;;;;;;;;;4989498;28;20030;-76
2023/06/19 06:49:17;;;;;;;9.27;6.20;;;;;;;;;;4987611;28;20095;-75
2023/06/19 06:51:45;;;;;;;6.57;4.97;;;;;;;;;;4987231;28;20033;-73
2023/06/19 06:54:11;;;;;;;11.70;5.25;;;;;;;;;;4990764;28;20051;-73
2023/06/19 06:56:37;;;;;;;13.20;5.45;;;;;;;;;;4986380;28;20089;-74
2023/06/19 06:59:02;;;;;;;8.25;4.63;;;;;;;;;;4993621;28;20121;-75
2023/06/19 07:01:28;;;;;;;10.68;5.53;;;;;;;;;;4989571;28;20457;-75
2023/06/19 07:03:54;;;;;;;8.60;5.57;;;;;;;;;;4994943;28;20034;-72
2023/06/19 07:06:19;;;;;;;9.65;5.22;;;;;;;;;;4992986;28;20038;-75
2023/06/19 07:08:47;;;;;;;7.25;4.43;;;;;;;;;;4990091;28;20057;-74
2023/06/19 07:11:13;;;;;;;14.07;5.47;;;;;;;;;;4993254;28;20108;-73
2023/06/19 07:13:41;;;;;;;6.25;4.63;;;;;;;;;;4987393;28;20046;-75
2023/06/19 07:16:07;;;;;;;12.13;4.55;;;;;;;;;;4989143;28;20038;-74
2023/06/19 07:18:35;;;;;;;10.20;4.32;;;;;;;;;;4993349;28;20038;-75
2023/06/19 07:21:03;;;;;;;8.60;4.43;;;;;;;;;;4995442;28;20058;-73
2023/06/19 07:23:28;;;;;;;12.77;5.63;;;;;;;;;;4989451;28;20096;-73
2023/06/19 07:25:54;;;;;;;7.97;4.15;;;;;;;;;;4992481;28;20051;-73
2023/06/19 07:28:20;;;;;;;6.63;4.70;;;;;;;;;;4985173;28;20030;-73
2023/06/19 07:30:47;;;;;;;12.82;6.63;;;;;;;;;;4987912;28;20070;-76
2023/06/19 07:33:13;;;;;;;7.68;4.05;;;;;;;;;;4989407;28;20216;-74
2023/06/19 07:35:39;;;;;;;8.45;4.82;;;;;;;;;;4990425;28;20031;-74
2023/06/19 07:38:05;;;;;;;7.57;4.38;;;;;;;;;;4988156;28;20114;-74
2023/06/19 07:40:30;;;;;;;8.40;4.40;;;;;;;;;;4989158;28;20035;-73
2023/06/19 07:42:56;;;;;;;9.63;4.63;;;;;;;;;;4989922;28;20452;-76
2023/06/19 07:45:23;;;;;;;8.93;4.80;;;;;;;;;;4980823;28;20031;-73
2023/06/19 07:47:57;;;;;;;7.20;4.32;;;;;;;;;;4989249;28;20049;-73
2023/06/19 07:50:23;;;;;;;11.38;4.10;;;;;;;;;;4987201;28;20042;-73
2023/06/19 07:52:50;;;;;;;8.63;4.82;;;;;;;;;;4989004;28;20026;-73
2023/06/19 07:55:15;;;;;;;9.25;5.25;;;;;;;;;;4988175;28;20046;-72
2023/06/19 07:57:41;;;;;;;6.05;4.53;;;;;;;;;;4992645;28;20079;-73
2023/06/19 08:00:10;;;;;;;10.68;5.43;;;;;;;;;;4986743;28;20038;-72
2023/06/19 08:02:37;;;;;;;12.25;5.45;;;;;;;;;;4999752;28;20030;-73
2023/06/19 08:05:03;;;;;;;5.07;4.18;;;;;;;;;;4990759;28;20108;-74
2023/06/19 08:07:29;;;;;;;7.90;4.47;;;;;;;;;;4983717;28;20464;-71
2023/06/19 08:09:55;;;;;;;7.30;4.28;;;;;;;;;;4989415;28;20109;-72
2023/06/19 08:12:21;;;;;;;7.80;4.00;;;;;;;;;;4989135;28;20094;-72
2023/06/19 08:14:48;;;;;;;9.02;4.28;;;;;;;;;;4993353;28;20113;-72
2023/06/19 08:17:14;;;;;;;6.50;4.05;;;;;;;;;;4990849;28;20032;-73
2023/06/19 08:19:40;;;;;;;5.85;3.92;;;;;;;;;;4986048;28;20950;-73
2023/06/19 08:22:06;;;;;;;6.53;4.03;;;;;;;;;;4987861;28;20031;-73
2023/06/19 08:24:31;;;;;;;5.43;3.75;;;;;;;;;;4990134;28;20035;-71
2023/06/19 08:26:57;;;;;;;7.68;3.30;;;;;;;;;;4992130;28;20113;-74
2023/06/19 08:29:24;;;;;;;7.03;3.50;;;;;;;;;;4999861;28;20085;-72
2023/06/19 08:31:50;;;;;;;6.40;3.30;;;;;;;;;;4999954;28;20018;-72
2023/06/19 08:34:15;;;;;;;7.30;4.00;;;;;;;;;;4988940;28;20042;-72
2023/06/19 08:36:41;;;;;;;6.35;3.85;;;;;;;;;;4995796;28;20532;-73
2023/06/19 08:39:08;;;;;;;7.38;3.40;;;;;;;;;;4992228;28;20143;-73
2023/06/19 08:41:39;;;;;;;12.00;3.72;;;;;;;;;;4979485;28;20034;-75
2023/06/19 08:44:08;;;;;;;6.95;4.13;;;;;;;;;;4990018;28;20050;-72
2023/06/19 08:46:38;;;;;;;7.15;3.70;;;;;;;;;;4990527;28;20030;-73
2023/06/19 08:49:06;;;;;;;5.25;3.17;;;;;;;;;;4993895;28;20081;-73
2023/06/19 08:51:32;;;;;;;8.55;3.97;;;;;;;;;;4992161;28;20478;-72
2023/06/19 08:54:04;;;;;;;6.93;3.60;;;;;;;;;;5022179;28;20431;-72
2023/06/19 08:56:37;;;;;;;5.63;3.55;;;;;;;;;;4994418;28;20079;-74
2023/06/19 08:59:17;;;;;;;6.72;4.07;;;;;;;;;;4991359;28;20038;-72
2023/06/19 09:01:53;;;;;;;6.43;4.35;;;;;;;;;;4986818;28;20038;-73
2023/06/19 09:04:26;;;;;;;8.70;4.45;;;;;;;;;;4996117;28;20096;-72
2023/06/19 09:06:57;;;;;;;5.90;3.55;;;;;;;;;;4993789;28;20049;-73
2023/06/19 09:09:26;;;;;;;5.53;3.60;;;;;;;;;;4973567;28;20074;-75
2023/06/19 09:12:07;;;;;;;9.02;4.15;;;;;;;;;;4986338;28;20018;-74
2023/06/19 09:14:43;;;;;;;6.05;3.70;;;;;;;;;;5012751;28;20042;-72
2023/06/19 09:17:17;;;;;;;8.00;3.50;;;;;;;;;;4992011;28;20045;-73
2023/06/19 09:19:57;;;;;;;5.00;3.75;;;;;;;;;;4986743;28;20053;-73
2023/06/19 09:22:24;;;;;;;5.68;3.50;;;;;;;;;;4994336;28;20400;-75
2023/06/19 09:24:50;;;;;;;5.63;3.83;;;;;;;;;;4996377;28;20030;-73
2023/06/19 09:27:20;;;;;;;6.55;3.85;;;;;;;;;;4981570;28;20045;-74
2023/06/19 09:29:50;;;;;;;5.90;3.83;;;;;;;;;;4992874;28;20030;-72
2023/06/19 09:32:22;;;;;;;5.43;3.78;;;;;;;;;;5006540;28;20095;-73
2023/06/19 09:34:51;;;;;;;11.57;3.78;;;;;;;;;;4989831;28;20030;-72
2023/06/19 09:37:28;;;;;;;8.60;4.53;;;;;;;;;;4992433;28;20034;-72
2023/06/19 09:39:55;;;;;;;5.03;3.53;;;;;;;;;;4987338;28;20061;-72
2023/06/19 09:42:29;;;;;;;5.72;3.45;;;;;;;;;;4991670;28;20084;-72
2023/06/19 09:45:01;;;;;;;7.20;3.88;;;;;;;;;;4985965;28;20053;-72
2023/06/19 09:47:31;;;;;;;6.20;3.60;;;;;;;;;;4994379;28;20081;-73
2023/06/19 09:49:58;;;;;;;7.43;5.45;;;;;;;;;;4994708;28;20049;-73
2023/06/19 09:52:24;;;;;;;5.50;3.65;;;;;;;;;;4996522;28;20502;-72
2023/06/19 09:54:52;;;;;;;8.43;4.15;;;;;;;;;;4993055;28;20062;-73
2023/06/19 09:57:21;;;;;;;8.25;3.70;;;;;;;;;;4999359;28;20040;-73
2023/06/19 09:59:58;;;;;;;5.13;3.60;;;;;;;;;;4998840;28;20121;-73
2023/06/19 10:02:27;;;;;;;5.80;3.25;;;;;;;;;;4998072;28;20507;-72
2023/06/19 10:04:55;;;;;;;5.88;3.67;;;;;;;;;;4990361;28;20046;-73
2023/06/19 10:07:22;;;;;;;7.28;3.50;;;;;;;;;;4985783;28;20051;-72
2023/06/19 10:10:27;;;;;;;12.73;3.60;;;;;;;;;;5000162;28;20084;-72
2023/06/19 10:13:15;;;;;;;5.50;3.38;;;;;;;;;;5002610;28;20109;-74
2023/06/19 10:15:42;;;;;;;7.93;3.80;;;;;;;;;;5010523;28;20035;-72
2023/06/19 10:18:18;;;;;;;7.05;3.75;;;;;;;;;;5005773;28;20025;-73
2023/06/19 10:20:46;;;;;;;8.02;3.75;;;;;;;;;;4988262;28;20117;-74
2023/06/19 10:23:21;;;;;;;4.50;3.40;;;;;;;;;;4994108;28;20129;-72
2023/06/19 10:25:54;;;;;;;6.78;3.30;;;;;;;;;;5002859;28;20121;-73
2023/06/19 10:28:30;;;;;;;7.57;4.10;;;;;;;;;;4988144;28;20036;-72
2023/06/19 10:31:07;;;;;;;4.00;3.30;;;;;;;;;;5002374;28;20503;-73
2023/06/19 10:33:36;;;;;;;5.75;3.63;;;;;;;;;;4995534;28;20067;-72
2023/06/19 10:36:15;;;;;;;4.18;3.38;;;;;;;;;;4997347;28;20034;-72
2023/06/19 10:38:46;;;;;;;6.60;3.22;;;;;;;;;;4993347;28;20040;-72
2023/06/19 10:41:20;;;;;;;5.40;3.40;;;;;;;;;;5000710;28;20058;-72
2023/06/19 10:44:06;;;;;;;4.95;3.17;;;;;;;;;;4995307;28;20479;-72
2023/06/19 10:46:38;;;;;;;5.10;3.13;;;;;;;;;;4992018;28;20037;-72
2023/06/19 10:49:07;;;;;;;5.93;3.73;;;;;;;;;;4994646;28;20068;-72
2023/06/19 10:51:44;;;;;;;5.78;3.40;;;;;;;;;;4997825;28;20030;-73
2023/06/19 10:54:10;;;;;;;7.22;3.65;;;;;;;;;;4977489;28;20489;-72
2023/06/19 10:56:36;;;;;;;6.47;3.42;;;;;;;;;;4996350;28;20106;-72
2023/06/19 10:59:11;;;;;;;6.18;3.58;;;;;;;;;;5004125;28;20033;-72
2023/06/19 11:01:41;;;;;;;6.65;3.70;;;;;;;;;;4994714;28;20034;-71
2023/06/19 11:04:08;;;;;;;5.68;3.80;;;;;;;;;;4983341;28;20022;-72
2023/06/19 11:06:35;;;;;;;4.53;3.20;;;;;;;;;;5001114;28;20546;-71
2023/06/19 11:09:02;;;;;;;6.07;3.35;;;;;;;;;;4993644;28;20505;-71
2023/06/19 11:11:45;;;;;;;4.63;3.42;;;;;;;;;;4993131;28;20547;-71
2023/06/19 11:14:12;;;;;;;5.55;3.10;;;;;;;;;;4989051;28;20125;-71
2023/06/19 11:16:41;;;;;;;5.93;3.30;;;;;;;;;;4980840;28;20045;-72
2023/06/19 11:19:10;;;;;;;9.05;4.18;;;;;;;;;;4974511;28;20038;-72
2023/06/19 11:21:38;;;;;;;3.97;3.30;;;;;;;;;;4991125;28;20026;-71
2023/06/19 11:24:06;;;;;;;6.55;3.50;;;;;;;;;;4971872;28;20038;-73
2023/06/19 11:26:38;;;;;;;4.22;3.25;;;;;;;;;;4986820;28;20100;-74
2023/06/19 11:29:24;;;;;;;10.70;3.63;;;;;;;;;;4989956;28;20041;-74
2023/06/19 11:31:53;;;;;;;6.03;3.10;;;;;;;;;;5003865;28;20073;-73
2023/06/19 11:34:19;;;;;;;7.63;3.38;;;;;;;;;;4995928;28;20409;-73
2023/06/19 11:36:45;;;;;;;13.60;3.38;;;;;;;;;;5000460;28;20137;-73
2023/06/19 11:39:14;;;;;;;7.75;3.67;;;;;;;;;;4993101;28;20030;-72
2023/06/19 11:41:44;;;;;;;5.78;3.22;;;;;;;;;;4995659;28;20180;-74
2023/06/19 11:44:11;;;;;;;5.15;2.75;;;;;;;;;;4992619;28;20042;-73
2023/06/19 11:46:37;;;;;;;8.18;2.95;;;;;;;;;;4992320;28;20556;-72
2023/06/19 11:49:18;;;;;;;3.28;2.92;;;;;;;;;;5026650;28;20411;-72
2023/06/19 11:51:47;;;;;;;4.43;3.28;;;;;;;;;;4996751;28;20034;-73
2023/06/19 11:54:14;;;;;;;3.72;2.80;;;;;;;;;;4998386;28;20066;-71
2023/06/19 11:56:41;;;;;;;9.05;3.30;;;;;;;;;;4996295;28;20040;-73
2023/06/19 11:59:08;;;;;;;4.75;3.30;;;;;;;;;;4995175;28;20133;-73
2023/06/19 12:01:35;;;;;;;6.50;3.28;;;;;;;;;;4997784;28;20045;-73
2023/06/19 12:04:01;;;;;;;7.45;4.25;;;;;;;;;;4996768;28;20029;-73
2023/06/19 12:06:28;;;;;;;5.03;3.08;;;;;;;;;;4992326;28;20041;-73
2023/06/19 12:08:54;;;;;;;8.20;3.88;;;;;;;;;;4988441;28;20027;-74
2023/06/19 12:11:21;;;;;;;10.05;3.00;;;;;;;;;;4990980;28;20053;-73
2023/06/19 12:13:47;;;;;;;5.25;3.20;;;;;;;;;;4996049;28;20026;-72
2023/06/19 12:16:13;;;;;;;5.50;3.30;;;;;;;;;;4989748;28;20404;-72
2023/06/19 12:18:40;;;;;;;5.80;3.13;;;;;;;;;;4993038;28;20018;-73
2023/06/19 12:21:06;;;;;;;6.18;3.38;;;;;;;;;;4991844;28;20488;-74
2023/06/19 12:23:32;;;;;;;5.43;3.33;;;;;;;;;;5000462;28;20041;-74
2023/06/19 12:25:58;;;;;;;7.60;5.03;;;;;;;;;;4990432;28;20022;-74
2023/06/19 12:28:25;;;;;;;5.40;3.35;;;;;;;;;;4990281;28;20049;-73
2023/06/19 12:30:52;;;;;;;3.67;2.90;;;;;;;;;;4990442;28;20030;-73
2023/06/19 12:33:20;;;;;;;4.82;3.28;;;;;;;;;;4989367;28;20551;-72
2023/06/19 12:35:47;;;;;;;6.68;3.10;;;;;;;;;;5002180;28;20513;-74
2023/06/19 12:38:14;;;;;;;4.03;2.80;;;;;;;;;;4988477;28;20485;-72
2023/06/19 12:40:40;;;;;;;7.10;3.30;;;;;;;;;;4997033;28;20037;-72
2023/06/19 12:43:07;;;;;;;4.13;3.05;;;;;;;;;;4996186;28;20029;-72
2023/06/19 12:45:33;;;;;;;3.97;2.80;;;;;;;;;;4997547;28;20073;-72
2023/06/19 12:47:59;;;;;;;8.07;3.00;;;;;;;;;;4990913;28;20117;-71
2023/06/19 12:50:25;;;;;;;5.88;2.80;;;;;;;;;;4997201;28;20034;-72
2023/06/19 12:52:51;;;;;;;3.35;2.47;;;;;;;;;;4993932;28;20433;-71
2023/06/19 12:55:17;;;;;;;5.05;3.05;;;;;;;;;;4997619;28;20125;-73
2023/06/19 12:57:44;;;;;;;6.25;3.10;;;;;;;;;;4994495;28;20057;-73
2023/06/19 13:00:14;;;;;;;6.10;3.00;;;;;;;;;;4989379;28;20121;-71
2023/06/19 13:02:42;;;;;;;5.35;3.10;;;;;;;;;;4991445;28;20030;-72
2023/06/19 13:05:09;;;;;;;4.85;2.92;;;;;;;;;;4992904;28;20056;-72
2023/06/19 13:07:35;;;;;;;7.50;3.20;;;;;;;;;;5001783;28;20121;-71
2023/06/19 13:10:01;;;;;;;5.22;3.00;;;;;;;;;;4985856;28;20197;-72
2023/06/19 13:12:26;;;;;;;6.10;3.10;;;;;;;;;;4989056;28;20134;-72
2023/06/19 13:14:52;;;;;;;5.80;3.10;;;;;;;;;;4992934;28;20041;-71
2023/06/19 13:17:19;;;;;;;3.88;2.60;;;;;;;;;;4975501;28;20089;-71
2023/06/19 13:19:45;;;;;;;5.15;3.00;;;;;;;;;;4991549;28;20487;-72
2023/06/19 13:22:11;;;;;;;5.22;2.95;;;;;;;;;;4992368;28;20038;-72
2023/06/19 13:24:37;;;;;;;6.28;3.30;;;;;;;;;;4993396;28;20041;-72
2023/06/19 13:27:03;;;;;;;7.38;3.40;;;;;;;;;;4991141;28;20035;-71
2023/06/19 13:29:29;;;;;;;4.95;3.15;;;;;;;;;;4987927;28;20480;-72
2023/06/19 13:31:55;;;;;;;6.65;3.00;;;;;;;;;;4994011;28;20490;-72
2023/06/19 13:34:21;;;;;;;5.50;3.22;;;;;;;;;;5005149;28;20030;-72
2023/06/19 13:36:47;;;;;;;9.15;3.53;;;;;;;;;;5010674;28;20067;-72
2023/06/19 13:39:13;;;;;;;5.07;3.20;;;;;;;;;;4995307;28;20508;-72
2023/06/19 13:41:39;;;;;;;8.23;3.25;;;;;;;;;;4990797;28;20147;-73
2023/06/19 13:44:05;;;;;;;13.63;3.75;;;;;;;;;;4990898;28;20084;-74
2023/06/19 13:46:31;;;;;;;4.35;3.00;;;;;;;;;;4986846;28;20026;-72
2023/06/19 13:48:57;;;;;;;4.80;2.70;;;;;;;;;;4988528;28;20022;-72
2023/06/19 13:51:23;;;;;;;5.55;3.00;;;;;;;;;;4984659;28;20054;-73
2023/06/19 13:53:50;;;;;;;6.45;2.42;;;;;;;;;;4989964;28;20018;-73
2023/06/19 13:56:16;;;;;;;7.63;2.88;;;;;;;;;;4986398;28;20037;-72
2023/06/19 13:58:42;;;;;;;5.10;2.88;;;;;;;;;;4990721;28;20061;-73
2023/06/19 14:01:08;;;;;;;5.38;3.30;;;;;;;;;;4987945;28;20063;-73
2023/06/19 14:03:36;;;;;;;3.53;2.65;;;;;;;;;;4988905;28;20030;-72
2023/06/19 14:06:03;;;;;;;5.60;2.85;;;;;;;;;;4981086;28;20113;-72
2023/06/19 14:08:29;;;;;;;6.60;2.80;;;;;;;;;;4988873;28;20365;-72
2023/06/19 14:10:55;;;;;;;6.68;2.92;;;;;;;;;;4986491;28;20119;-71
2023/06/19 14:13:22;;;;;;;4.72;2.80;;;;;;;;;;4992548;28;20373;-71
2023/06/19 14:15:48;;;;;;;4.35;3.15;;;;;;;;;;4988556;28;20511;-72
2023/06/19 14:18:14;;;;;;;4.75;2.67;;;;;;;;;;4994001;28;20033;-72
2023/06/19 14:20:43;;;;;;;4.43;2.80;;;;;;;;;;4996809;28;20076;-72
2023/06/19 14:23:09;;;;;;;5.93;2.60;;;;;;;;;;4990171;28;20046;-71
2023/06/19 14:25:35;;;;;;;4.35;2.55;;;;;;;;;;4991276;28;20027;-73
2023/06/19 14:28:00;;;;;;;3.30;2.72;;;;;;;;;;4987272;28;20492;-71
2023/06/19 14:30:26;;;;;;;4.20;2.53;;;;;;;;;;4993938;28;20049;-72
2023/06/19 14:32:52;;;;;;;4.57;3.17;;;;;;;;;;4987629;28;20022;-72
2023/06/19 14:35:18;;;;;;;4.60;3.00;;;;;;;;;;4995330;28;20144;-71